Wetterdaten: aktuell Donnerstag, 19.10.2017 12:00
Datum Zeit Temp. A. Feuchte A. Luftdruck Regen Wind Richtung Richtung Windchill Windben
19.10.2017 12:00 14,9 C 80 % 1014,8 hPa 0,0 l/m 5,0 km/h W 270 14,9 C 14,0 km/h
19.10.2017 11:00 12,7 C 86 % 1014,2 hPa 0,0 l/m 4,6 km/h SO 135 12,7 C 12,6 km/h
19.10.2017 10:00 9,5 C 86 % 1013,4 hPa 0,0 l/m 0,0 km/h N 360 9,5 C 0,0 km/h
19.10.2017 09:00 7,5 C 84 % 1012,7 hPa 0,0 l/m 0,0 km/h O-SO 112 7,5 C 0,0 km/h
19.10.2017 08:00 7,0 C 85 % 1012,2 hPa 0,0 l/m 0,0 km/h S 180 7,0 C 0,0 km/h
19.10.2017 07:00 7,2 C 85 % 1012,3 hPa 0,0 l/m 0,0 km/h SO 135 7,2 C 0,0 km/h
19.10.2017 06:00 7,6 C 84 % 1012,7 hPa 0,0 l/m 0,0 km/h SW 225 7,6 C 0,0 km/h
19.10.2017 05:34 8,1 C 85 % 1012,5 hPa 0,0 l/m 0,0 km/h O-SO 112 8,1 C 0,0 km/h
19.10.2017 05:00 8,1 C 85 % 1012,5 hPa 0,0 l/m 0,0 km/h O-SO 112 8,1 C 0,0 km/h
19.10.2017 04:00 8,5 C 85 % 1012,6 hPa 0,0 l/m 0,2 km/h S-SW 202 8,5 C 3,9 km/h
19.10.2017 03:00 8,8 C 85 % 1012,9 hPa 0,0 l/m 0,0 km/h SW 225 8,8 C 0,0 km/h
19.10.2017 02:00 9,3 C 85 % 1013,0 hPa 0,0 l/m 0,0 km/h W-SW 247 9,3 C 0,0 km/h
19.10.2017 01:00 9,8 C 85 % 1012,9 hPa 0,0 l/m 0,0 km/h N-NW 337 9,8 C 0,0 km/h
19.10.2017 00:00 10,6 C 85 % 1013,2 hPa 0,0 l/m 0,0 km/h S 180 10,6 C 0,0 km/h
18.10.2017 23:00 11,5 C 85 % 1013,1 hPa 0,0 l/m 0,0 km/h O-NO 67 11,5 C 0,0 km/h
18.10.2017 22:00 12,4 C 85 % 1013,4 hPa 0,0 l/m 0,4 km/h SO 135 12,4 C 0,0 km/h
18.10.2017 21:00 13,2 C 85 % 1013,3 hPa 0,0 l/m 2,7 km/h SO 135 13,2 C 3,4 km/h
18.10.2017 20:00 13,9 C 85 % 1013,3 hPa 0,0 l/m 0,6 km/h SW 225 13,9 C 2,4 km/h
18.10.2017 19:00 14,4 C 84 % 1013,6 hPa 0,0 l/m 2,9 km/h S 180 14,4 C 5,3 km/h
18.10.2017 18:00 16,1 C 80 % 1013,6 hPa 0,0 l/m 0,0 km/h S 180 16,1 C 0,0 km/h
18.10.2017 17:00 18,0 C 77 % 1013,8 hPa 0,0 l/m 5,0 km/h NW 315 18,0 C 5,6 km/h
18.10.2017 16:00 18,8 C 75 % 1014,2 hPa 0,0 l/m 6,7 km/h N-NO 22 18,7 C 17,1 km/h
18.10.2017 15:00 18,2 C 75 % 1014,6 hPa 0,0 l/m 2,9 km/h N 360 18,2 C 5,3 km/h
18.10.2017 14:00 17,9 C 76 % 1014,9 hPa 0,0 l/m 2,3 km/h N-NW 337 17,9 C 0,0 km/h
18.10.2017 13:00 17,6 C 79 % 1015,2 hPa 0,0 l/m 4,0 km/h N-NO 22 17,6 C 14,5 km/h
_ Min-Zeit 08:00 15:00 08:00 - 18:00 - - 08:00 14:00
Minimum _ 7,0 C 75 % 1012,2 hPa - 0,0 km/h - - 7,0 C 0,0 km/h
_ Max-Zeit 16:00 10:00 13:00 13:00 16:00 - - 16:00 16:00
Maximum _ 18,8 C 86 % 1015,2 hPa 0,0 l/m 6,7 km/h
N-NO
- - 18,7 C 17,1 km/h
N-NO
Durchschnitt _ 12,5 C 83 % 1013,5 hPa #0,0 l/m 1,7 km/h SO - 12,5 C 3,9 km/h